Time;durP1;ratioP1;P1;durP2;ratioP2;P2;SDS_P1;SDS_P2;PMS_P1;PMS_P2;Temp;Humidity;BMP_temperature;BMP_pressure;BME280_temperature;BME280_humidity;BME280_pressure;Samples;Min_cycle;Max_cycle;Signal;HPM_P1;HPM_P2
2022/06/22 00:02:16;;;;;;;11.27;6.57;;;12.90;99.90;;;;;;5067250;28;20047;-79
2022/06/22 00:04:46;;;;;;;13.85;6.50;;;12.90;99.90;;;;;;5076696;28;20115;-79
2022/06/22 00:07:26;;;;;;;13.02;6.63;;;12.80;99.90;;;;;;5053508;28;20040;-79
2022/06/22 00:10:13;;;;;;;12.10;6.75;;;12.80;99.90;;;;;;5080212;28;20051;-79
2022/06/22 00:12:39;;;;;;;13.25;8.00;;;12.70;99.90;;;;;;5045699;28;20044;-79
2022/06/22 00:15:23;;;;;;;12.43;7.60;;;12.60;99.90;;;;;;5036890;28;20040;-78
2022/06/22 00:17:49;;;;;;;12.80;6.90;;;12.60;99.90;;;;;;5056775;28;20106;-78
2022/06/22 00:20:25;;;;;;;13.45;7.03;;;12.60;99.90;;;;;;5067650;28;20140;-78
2022/06/22 00:22:57;;;;;;;11.80;6.75;;;12.50;99.90;;;;;;5065769;28;20181;-79
2022/06/22 00:25:31;;;;;;;12.52;7.13;;;12.50;99.90;;;;;;5066431;28;20071;-79
2022/06/22 00:28:36;;;;;;;11.27;6.35;;;12.40;99.90;;;;;;5067491;28;20040;-78
2022/06/22 00:31:13;;;;;;;12.40;6.53;;;12.40;99.90;;;;;;5047023;28;20204;-78
2022/06/22 00:33:59;;;;;;;13.07;6.80;;;12.30;99.90;;;;;;5054863;28;20086;-78
2022/06/22 00:36:27;;;;;;;13.20;6.68;;;12.30;99.90;;;;;;5055731;28;20052;-78
2022/06/22 00:38:53;;;;;;;12.18;7.13;;;12.30;99.90;;;;;;5040827;28;20037;-79
2022/06/22 00:41:24;;;;;;;11.88;6.47;;;12.20;99.90;;;;;;5047186;28;20109;-78
2022/06/22 00:43:52;;;;;;;13.15;7.35;;;12.30;99.90;;;;;;5034591;28;20194;-79
2022/06/22 00:46:21;;;;;;;13.35;7.07;;;12.30;99.90;;;;;;5059913;28;20044;-79
2022/06/22 00:48:51;;;;;;;12.60;6.65;;;12.30;99.90;;;;;;5040435;28;20076;-78
2022/06/22 00:51:35;;;;;;;12.80;7.00;;;12.20;99.90;;;;;;5046114;28;20041;-79
2022/06/22 00:54:09;;;;;;;11.88;6.50;;;12.20;99.90;;;;;;5056270;28;20044;-78
2022/06/22 00:56:51;;;;;;;10.57;6.38;;;12.20;99.90;;;;;;5054527;28;20082;-78
2022/06/22 00:59:24;;;;;;;11.68;6.20;;;12.20;99.90;;;;;;5048281;28;20475;-79
2022/06/22 01:02:03;;;;;;;10.52;5.22;;;12.10;99.90;;;;;;5041589;28;20049;-78
2022/06/22 01:04:40;;;;;;;9.80;4.65;;;12.10;99.90;;;;;;5039547;28;20329;-78
2022/06/22 01:07:21;;;;;;;9.18;3.70;;;12.00;99.90;;;;;;5056291;28;20041;-78
2022/06/22 01:10:01;;;;;;;8.13;3.30;;;11.90;99.90;;;;;;5064520;28;20470;-79
2022/06/22 01:12:36;;;;;;;7.55;3.22;;;11.80;99.90;;;;;;5064486;28;20056;-78
2022/06/22 01:15:04;;;;;;;7.45;3.03;;;11.70;99.90;;;;;;5047735;28;20398;-78
2022/06/22 01:17:53;;;;;;;7.82;3.63;;;11.60;99.90;;;;;;5043132;28;20119;-78
2022/06/22 01:20:47;;;;;;;7.38;3.33;;;11.50;99.90;;;;;;5046816;28;20036;-78
2022/06/22 01:23:37;;;;;;;7.60;3.10;;;11.50;99.90;;;;;;5058953;28;20119;-78
2022/06/22 01:26:19;;;;;;;8.18;3.30;;;11.30;99.90;;;;;;5033024;28;20047;-78
2022/06/22 01:28:58;;;;;;;8.02;3.40;;;11.30;99.90;;;;;;5057606;28;20047;-78
2022/06/22 01:31:24;;;;;;;7.40;3.08;;;11.20;99.90;;;;;;5043742;28;20044;-78
2022/06/22 01:33:51;;;;;;;6.95;2.95;;;11.20;99.90;;;;;;5029020;28;20037;-78
2022/06/22 01:36:28;;;;;;;6.93;3.00;;;11.20;99.90;;;;;;5034524;28;20032;-78
2022/06/22 01:38:55;;;;;;;8.00;3.72;;;11.20;99.90;;;;;;5066151;28;20072;-78
2022/06/22 01:41:37;;;;;;;8.63;3.70;;;11.20;99.90;;;;;;5029099;28;20664;-79
2022/06/22 01:44:27;;;;;;;8.43;3.88;;;11.10;99.90;;;;;;5046974;28;20033;-78
2022/06/22 01:47:33;;;;;;;9.20;4.47;;;11.10;99.90;;;;;;5063012;28;20117;-78
2022/06/22 01:50:02;;;;;;;8.77;4.30;;;11.10;99.90;;;;;;5046885;28;20399;-78
2022/06/22 01:52:55;;;;;;;8.73;3.90;;;11.10;99.90;;;;;;5063038;28;20052;-79
2022/06/22 01:55:37;;;;;;;9.63;5.22;;;11.10;99.90;;;;;;5034732;28;20037;-78
2022/06/22 01:58:12;;;;;;;10.27;5.07;;;11.10;99.90;;;;;;5040989;28;20046;-78
2022/06/22 02:00:38;;;;;;;9.68;4.95;;;11.10;99.90;;;;;;5049863;28;20044;-78
2022/06/22 02:03:25;;;;;;;11.60;5.50;;;11.10;99.90;;;;;;5036664;28;20066;-78
2022/06/22 02:07:44;;;;;;;11.57;6.53;;;11.10;99.90;;;;;;5036348;28;20123;-78
2022/06/22 02:08:52;;;;;;;10.38;6.13;;;11.20;99.90;;;;;;5051400;28;20045;-79
2022/06/22 02:11:21;;;;;;;11.85;6.32;;;11.10;99.90;;;;;;5045221;28;20049;-79
2022/06/22 02:13:57;;;;;;;15.55;7.13;;;11.20;99.90;;;;;;5058832;28;20059;-79
2022/06/22 02:16:45;;;;;;;11.45;6.60;;;11.20;99.90;;;;;;5061344;28;20040;-79
2022/06/22 02:19:17;;;;;;;10.73;6.68;;;11.20;99.90;;;;;;5047147;28;20040;-78
2022/06/22 02:21:52;;;;;;;12.18;7.03;;;11.20;99.90;;;;;;5061865;28;20044;-79
2022/06/22 02:24:20;;;;;;;11.50;7.18;;;11.10;99.90;;;;;;5046551;28;20109;-79
2022/06/22 02:27:00;;;;;;;11.38;6.47;;;11.20;99.90;;;;;;5037615;28;20036;-78
2022/06/22 02:29:36;;;;;;;11.57;6.13;;;11.20;99.90;;;;;;5069354;28;20121;-78
2022/06/22 02:32:05;;;;;;;11.88;6.32;;;11.20;99.90;;;;;;5068531;28;20082;-79
2022/06/22 02:34:34;;;;;;;11.93;6.57;;;11.20;99.90;;;;;;5044671;28;20045;-79
2022/06/22 02:37:03;;;;;;;12.88;7.10;;;11.20;99.90;;;;;;5064899;28;20119;-78
2022/06/22 02:39:32;;;;;;;10.77;6.47;;;11.30;99.90;;;;;;5051982;28;20071;-79
2022/06/22 02:44:46;;;;;;;11.57;7.45;;;11.40;99.90;;;;;;5056707;28;20062;-79
2022/06/22 02:47:27;;;;;;;12.55;7.70;;;11.40;99.90;;;;;;5049902;28;20036;-79
2022/06/22 02:50:14;;;;;;;12.85;7.30;;;11.40;99.90;;;;;;5041067;28;20051;-78
2022/06/22 02:52:45;;;;;;;14.63;8.05;;;11.40;99.90;;;;;;5068952;28;20111;-79
2022/06/22 02:55:23;;;;;;;12.27;7.30;;;11.40;99.90;;;;;;5051765;28;20420;-78
2022/06/22 02:57:57;;;;;;;11.88;7.22;;;11.40;99.90;;;;;;5068409;28;20505;-79
2022/06/22 03:00:31;;;;;;;13.45;7.53;;;11.30;99.90;;;;;;5066422;28;20058;-79
2022/06/22 03:03:08;;;;;;;12.05;7.40;;;11.30;99.90;;;;;;5053727;28;20379;-79
2022/06/22 03:05:35;;;;;;;11.85;7.32;;;11.30;99.90;;;;;;5066428;28;20067;-79
2022/06/22 03:08:03;;;;;;;13.63;7.72;;;11.30;99.90;;;;;;5051617;28;20037;-79
2022/06/22 03:10:42;;;;;;;12.45;7.40;;;11.30;99.90;;;;;;5063612;28;20075;-79
2022/06/22 03:13:18;;;;;;;12.52;7.03;;;11.30;99.90;;;;;;5066206;28;20079;-79
2022/06/22 03:15:45;;;;;;;12.35;7.47;;;11.30;99.90;;;;;;5062493;28;20048;-79
2022/06/22 03:18:16;;;;;;;12.52;6.80;;;11.20;99.90;;;;;;5062125;28;20047;-79
2022/06/22 03:20:58;;;;;;;13.88;7.65;;;11.20;99.90;;;;;;5044037;28;20037;-79
2022/06/22 03:23:54;;;;;;;11.25;6.95;;;11.20;99.90;;;;;;5047232;28;20568;-79
2022/06/22 03:26:23;;;;;;;10.90;6.70;;;11.20;99.90;;;;;;5059969;28;20045;-80
2022/06/22 03:29:26;;;;;;;12.10;7.10;;;11.20;99.90;;;;;;5066435;28;20047;-79
2022/06/22 03:31:59;;;;;;;11.95;7.13;;;11.20;99.90;;;;;;5064908;28;20156;-79
2022/06/22 03:34:34;;;;;;;12.32;7.22;;;11.20;99.90;;;;;;5061099;28;20036;-79
2022/06/22 03:37:04;;;;;;;12.55;7.35;;;11.20;99.90;;;;;;5051749;28;20535;-79
2022/06/22 03:39:35;;;;;;;11.77;7.18;;;11.20;99.90;;;;;;5055805;28;20044;-79
2022/06/22 03:42:06;;;;;;;13.05;7.47;;;11.30;99.90;;;;;;5045356;28;20044;-79
2022/06/22 03:44:48;;;;;;;11.93;7.03;;;11.30;99.90;;;;;;5049986;28;20268;-79
2022/06/22 03:47:19;;;;;;;13.50;7.10;;;11.30;99.90;;;;;;5068247;28;20040;-79
2022/06/22 03:50:04;;;;;;;13.60;7.65;;;11.40;99.90;;;;;;5048528;28;20120;-79
2022/06/22 03:52:35;;;;;;;12.18;6.70;;;11.40;99.90;;;;;;5037289;28;20036;-79
2022/06/22 03:55:17;;;;;;;10.63;6.28;;;11.40;99.90;;;;;;5032425;28;20326;-79
2022/06/22 03:57:45;;;;;;;10.80;6.70;;;11.30;99.90;;;;;;5056799;28;20060;-79
2022/06/22 04:00:13;;;;;;;11.40;7.13;;;11.40;99.90;;;;;;5050876;28;20464;-79
2022/06/22 04:02:40;;;;;;;11.90;6.20;;;11.30;99.90;;;;;;5067711;28;20040;-79
2022/06/22 04:05:13;;;;;;;12.02;6.88;;;11.30;99.90;;;;;;5038218;28;20048;-79
2022/06/22 04:07:40;;;;;;;11.52;6.70;;;11.40;99.90;;;;;;5059222;28;20056;-79
2022/06/22 04:10:13;;;;;;;10.10;6.05;;;11.40;99.90;;;;;;5067313;28;20128;-79
2022/06/22 04:12:45;;;;;;;10.52;6.32;;;11.50;99.90;;;;;;5067282;28;20418;-79
2022/06/22 04:15:42;;;;;;;11.10;6.57;;;11.60;99.90;;;;;;5042169;28;20033;-79
2022/06/22 04:18:34;;;;;;;11.00;6.85;;;11.70;99.90;;;;;;5062993;28;20037;-79
2022/06/22 04:21:10;;;;;;;12.13;6.68;;;11.70;99.90;;;;;;5050769;28;20095;-79
2022/06/22 04:24:11;;;;;;;11.73;6.25;;;11.80;99.90;;;;;;5047667;28;20036;-79
2022/06/22 04:26:46;;;;;;;12.48;7.25;;;11.90;99.90;;;;;;5051265;28;20068;-79
2022/06/22 04:29:33;;;;;;;11.55;6.68;;;12.00;99.90;;;;;;5038244;28;20041;-79
2022/06/22 04:32:21;;;;;;;11.27;6.50;;;12.10;99.90;;;;;;5058258;28;20120;-79
2022/06/22 04:35:18;;;;;;;11.18;6.10;;;12.20;99.90;;;;;;5038212;28;20069;-79
2022/06/22 04:37:55;;;;;;;11.70;6.28;;;12.30;99.90;;;;;;5065982;28;20043;-79
2022/06/22 04:40:37;;;;;;;11.30;6.05;;;12.30;99.90;;;;;;5068255;28;20040;-79
2022/06/22 04:43:04;;;;;;;9.87;6.27;;;12.40;99.90;;;;;;5045998;28;20048;-79
2022/06/22 04:45:37;;;;;;;10.55;5.43;;;12.50;99.90;;;;;;5040881;28;20111;-79
2022/06/22 04:48:26;;;;;;;9.98;6.00;;;12.60;99.90;;;;;;5052082;28;20078;-79
2022/06/22 04:50:58;;;;;;;10.25;6.32;;;12.70;99.90;;;;;;5058067;28;20048;-79
2022/06/22 04:53:38;;;;;;;12.43;6.95;;;12.80;99.90;;;;;;5059917;28;20040;-79
2022/06/22 04:56:09;;;;;;;12.18;7.40;;;12.90;99.90;;;;;;5044758;28;20040;-79
2022/06/22 04:58:53;;;;;;;11.70;7.15;;;13.00;99.90;;;;;;5046455;28;20119;-80
2022/06/22 05:01:47;;;;;;;11.95;7.03;;;13.20;99.90;;;;;;5066635;28;20044;-79
2022/06/22 05:04:22;;;;;;;14.45;7.45;;;13.30;99.90;;;;;;5032225;28;20051;-79
2022/06/22 05:07:00;;;;;;;13.80;7.25;;;13.40;99.90;;;;;;5051405;28;20564;-79
2022/06/22 05:09:49;;;;;;;15.15;7.60;;;13.60;99.90;;;;;;5043765;28;20483;-79
2022/06/22 05:12:21;;;;;;;13.38;7.05;;;13.70;99.90;;;;;;5059981;28;20423;-80
2022/06/22 05:14:49;;;;;;;13.60;7.63;;;13.80;99.90;;;;;;5034253;28;20065;-79
2022/06/22 05:17:28;;;;;;;11.88;6.90;;;13.90;99.90;;;;;;5053104;28;20422;-79
2022/06/22 05:20:18;;;;;;;13.57;6.97;;;13.90;99.90;;;;;;5047240;28;20071;-80
2022/06/22 05:22:45;;;;;;;11.65;6.60;;;14.00;99.90;;;;;;5049501;28;20116;-79
2022/06/22 05:25:13;;;;;;;12.52;6.45;;;14.20;99.90;;;;;;5066662;28;20051;-79
2022/06/22 05:28:07;;;;;;;11.82;6.55;;;14.20;99.90;;;;;;5023035;28;20047;-79
2022/06/22 05:30:41;;;;;;;11.10;6.60;;;14.40;99.90;;;;;;5062413;28;20079;-79
2022/06/22 05:33:12;;;;;;;14.88;7.05;;;14.50;99.90;;;;;;5066762;28;20037;-79
2022/06/22 05:35:46;;;;;;;12.93;7.40;;;14.60;99.90;;;;;;5050499;28;20487;-78
2022/06/22 05:38:17;;;;;;;11.27;6.13;;;14.70;99.90;;;;;;5064825;28;20120;-79
2022/06/22 05:40:45;;;;;;;13.55;7.38;;;14.80;99.90;;;;;;5062696;28;20037;-79
2022/06/22 05:43:11;;;;;;;13.77;7.20;;;14.90;99.90;;;;;;5058375;28;20123;-79
2022/06/22 05:45:44;;;;;;;11.90;6.75;;;15.10;99.90;;;;;;5041839;28;20068;-79
2022/06/22 05:48:23;;;;;;;11.75;6.60;;;15.20;99.90;;;;;;5059830;28;20074;-79
2022/06/22 05:51:02;;;;;;;13.70;7.15;;;15.30;99.90;;;;;;5063553;28;20055;-79
2022/06/22 05:54:02;;;;;;;14.75;7.65;;;15.40;99.90;;;;;;5050064;28;20037;-79
2022/06/22 05:56:35;;;;;;;13.23;7.85;;;15.50;99.90;;;;;;5044478;28;20052;-80
2022/06/22 05:59:19;;;;;;;;;;;15.60;99.90;;;;;;5050419;28;20037;-80
2022/06/22 06:01:56;;;;;;;12.00;6.55;;;15.70;99.90;;;;;;5067356;28;19927;-80
2022/06/22 06:04:40;;;;;;;15.13;7.90;;;15.80;99.90;;;;;;5054510;28;20097;-80
2022/06/22 06:07:19;;;;;;;14.40;8.13;;;15.90;99.90;;;;;;5054542;28;20040;-79
2022/06/22 06:09:46;;;;;;;12.65;7.72;;;16.00;99.90;;;;;;5070710;28;20044;-79
2022/06/22 06:12:21;;;;;;;13.63;8.35;;;16.00;99.90;;;;;;5037524;28;20129;-79
2022/06/22 06:14:51;;;;;;;16.02;8.27;;;16.10;99.90;;;;;;5070663;28;20195;-79
2022/06/22 06:17:24;;;;;;;13.32;7.32;;;16.20;99.90;;;;;;5047404;28;20123;-80
2022/06/22 06:19:54;;;;;;;14.43;7.70;;;16.30;99.90;;;;;;5062708;28;20028;-80
2022/06/22 06:22:22;;;;;;;13.68;7.70;;;16.30;99.90;;;;;;5044976;28;20062;-80
2022/06/22 06:27:48;;;;;;;12.60;7.13;;;16.50;99.90;;;;;;5065447;28;20501;-79
2022/06/22 06:30:30;;;;;;;13.30;6.47;;;16.60;99.90;;;;;;5069278;28;20056;-79
2022/06/22 06:33:22;;;;;;;9.63;4.43;;;16.60;99.90;;;;;;5045505;28;20094;-79
2022/06/22 06:36:18;;;;;;;10.30;4.65;;;16.80;99.90;;;;;;5070660;28;20043;-80
2022/06/22 06:39:00;;;;;;;12.82;5.25;;;17.00;99.90;;;;;;5062145;28;20041;-80
2022/06/22 06:41:43;;;;;;;12.65;5.75;;;17.10;99.90;;;;;;5063217;28;20047;-80
2022/06/22 06:44:18;;;;;;;10.95;5.40;;;17.10;99.90;;;;;;5062126;28;20525;-80
2022/06/22 06:46:51;;;;;;;11.07;5.82;;;17.20;99.90;;;;;;5035837;28;20043;-79
2022/06/22 06:49:32;;;;;;;11.27;5.60;;;17.30;99.90;;;;;;5052720;28;20036;-79
2022/06/22 06:52:01;;;;;;;10.48;5.45;;;17.40;99.90;;;;;;5049534;28;20122;-80
2022/06/22 06:54:32;;;;;;;12.02;5.47;;;17.50;99.90;;;;;;5036014;28;20165;-80
2022/06/22 06:57:12;;;;;;;11.68;5.85;;;17.60;99.90;;;;;;5050766;28;20033;-81
2022/06/22 06:59:39;;;;;;;14.05;6.68;;;17.60;99.90;;;;;;5056023;28;20044;-80
2022/06/22 07:02:27;;;;;;;13.23;5.45;;;17.70;99.90;;;;;;5045598;28;20086;-79
2022/06/22 07:04:52;;;;;;;11.02;5.68;;;17.70;99.90;;;;;;5056932;28;20126;-79
2022/06/22 07:07:33;;;;;;;13.25;5.60;;;17.80;99.90;;;;;;5044715;28;20072;-78
2022/06/22 07:10:07;;;;;;;13.20;6.13;;;18.00;99.90;;;;;;5049752;28;20355;-79
2022/06/22 07:12:49;;;;;;;13.45;6.00;;;18.10;99.90;;;;;;5052834;28;20048;-79
2022/06/22 07:15:19;;;;;;;11.27;5.70;;;18.20;99.90;;;;;;5046518;28;20056;-79
2022/06/22 07:17:48;;;;;;;10.93;5.45;;;18.20;99.90;;;;;;5049762;28;20225;-79
2022/06/22 07:20:18;;;;;;;12.10;5.38;;;18.30;99.90;;;;;;5051441;28;20147;-79
2022/06/22 07:23:00;;;;;;;11.20;4.70;;;18.30;99.90;;;;;;5069066;28;20494;-80
2022/06/22 07:25:47;;;;;;;10.55;5.03;;;18.50;99.90;;;;;;5052163;28;20383;-79
2022/06/22 07:28:37;;;;;;;11.20;4.82;;;18.60;99.90;;;;;;5046977;28;20407;-80
2022/06/22 07:31:19;;;;;;;10.38;4.18;;;18.70;99.90;;;;;;5046191;28;20041;-79
2022/06/22 07:34:07;;;;;;;11.80;4.57;;;18.80;99.90;;;;;;5069090;28;20132;-79
2022/06/22 07:36:43;;;;;;;10.00;5.30;;;18.90;99.90;;;;;;5052319;28;20101;-79
2022/06/22 07:39:38;;;;;;;11.27;5.55;;;19.00;99.90;;;;;;5040561;28;20037;-79
2022/06/22 07:42:03;;;;;;;11.63;5.13;;;19.00;99.90;;;;;;5042134;28;20044;-79
2022/06/22 07:44:32;;;;;;;10.57;5.22;;;19.10;99.90;;;;;;5037973;28;20049;-79
2022/06/22 07:47:13;;;;;;;10.77;5.13;;;19.10;99.90;;;;;;5032969;28;20044;-79
2022/06/22 07:49:50;;;;;;;12.65;5.55;;;19.10;99.90;;;;;;5066796;28;20499;-79
2022/06/22 07:52:19;;;;;;;11.05;4.90;;;19.10;99.90;;;;;;5066991;28;20044;-80
2022/06/22 07:54:59;;;;;;;13.00;4.93;;;19.20;99.90;;;;;;5068963;28;20052;-79
2022/06/22 07:58:08;;;;;;;11.60;5.22;;;19.20;99.90;;;;;;5051980;28;20091;-79
2022/06/22 08:00:38;;;;;;;13.02;4.28;;;19.20;99.90;;;;;;4991870;28;20522;-79
2022/06/22 08:03:22;;;;;;;11.50;4.70;;;19.30;99.90;;;;;;5059118;28;20060;-79
2022/06/22 08:05:51;;;;;;;10.07;4.00;;;19.20;99.90;;;;;;5045121;28;20102;-79
2022/06/22 08:08:26;;;;;;;10.63;4.30;;;19.20;99.90;;;;;;5048024;28;20047;-79
2022/06/22 08:11:18;;;;;;;10.32;4.15;;;19.30;99.90;;;;;;5060747;28;20110;-79
2022/06/22 08:13:52;;;;;;;11.90;4.22;;;19.40;99.90;;;;;;5050740;28;20139;-79
2022/06/22 08:16:40;;;;;;;11.10;4.50;;;19.50;99.90;;;;;;5048915;28;20545;-79
2022/06/22 08:19:07;;;;;;;11.25;4.50;;;19.40;99.90;;;;;;5068172;28;20102;-79
2022/06/22 08:21:38;;;;;;;10.70;4.07;;;19.40;99.90;;;;;;5046555;28;20040;-80
2022/06/22 08:24:09;;;;;;;11.98;3.42;;;19.40;99.90;;;;;;5049635;28;20076;-79
2022/06/22 08:26:35;;;;;;;14.65;3.38;;;19.50;99.90;;;;;;5026576;28;20387;-79
2022/06/22 08:29:01;;;;;;;8.95;3.20;;;19.60;99.90;;;;;;5051017;28;20048;-79
2022/06/22 08:31:36;;;;;;;10.13;3.30;;;19.80;99.90;;;;;;5049560;28;20044;-80
2022/06/22 08:34:07;;;;;;;12.18;3.65;;;19.80;99.90;;;;;;5066149;28;20048;-79
2022/06/22 08:36:48;;;;;;;10.32;3.60;;;20.00;99.90;;;;;;5048406;28;20287;-79
2022/06/22 08:39:29;;;;;;;8.90;3.50;;;20.10;99.90;;;;;;5033723;28;20044;-80
2022/06/22 08:42:02;;;;;;;11.60;3.83;;;20.20;99.90;;;;;;5054908;28;20095;-80
2022/06/22 08:45:11;;;;;;;11.75;4.05;;;20.20;99.90;;;;;;5053720;28;20063;-79
2022/06/22 08:47:49;;;;;;;10.38;3.92;;;20.30;99.90;;;;;;5050777;28;20148;-80
2022/06/22 08:50:23;;;;;;;10.75;4.13;;;20.40;99.90;;;;;;5038593;28;20045;-79
2022/06/22 08:53:12;;;;;;;11.38;3.55;;;20.50;99.90;;;;;;5040052;28;20380;-79
2022/06/22 08:56:04;;;;;;;10.85;4.53;;;20.60;99.90;;;;;;5045885;28;20040;-80
2022/06/22 08:58:51;;;;;;;11.48;4.30;;;20.70;99.90;;;;;;5051172;28;20041;-79
2022/06/22 09:01:55;;;;;;;10.35;3.70;;;20.60;99.90;;;;;;5067778;28;20042;-79
2022/06/22 09:04:58;;;;;;;10.50;3.55;;;20.60;99.90;;;;;;5045606;28;20537;-80
2022/06/22 09:07:54;;;;;;;11.77;4.35;;;20.70;99.90;;;;;;5047662;28;20086;-79
2022/06/22 09:10:38;;;;;;;10.85;4.05;;;20.90;99.90;;;;;;5050602;28;20058;-79
2022/06/22 09:13:30;;;;;;;11.02;3.97;;;21.00;99.90;;;;;;5055428;28;20117;-80
2022/06/22 09:16:41;;;;;;;13.35;4.78;;;21.00;99.90;;;;;;5035580;28;20072;-80
2022/06/22 09:19:28;;;;;;;11.57;4.38;;;20.90;99.90;;;;;;5019334;28;20101;-79
2022/06/22 09:22:14;;;;;;;9.35;3.95;;;20.90;99.90;;;;;;5036835;28;21031;-80
2022/06/22 09:24:44;;;;;;;11.57;4.30;;;20.90;99.90;;;;;;5047221;28;20044;-80
2022/06/22 09:27:10;;;;;;;10.75;3.92;;;21.10;99.90;;;;;;5051750;28;20044;-79
2022/06/22 09:29:50;;;;;;;11.70;3.95;;;21.20;99.90;;;;;;5066228;28;20044;-80
2022/06/22 09:32:36;;;;;;;9.23;4.07;;;21.40;99.90;;;;;;5050939;28;20457;-80
2022/06/22 09:35:20;;;;;;;9.88;4.13;;;21.40;99.90;;;;;;5066287;28;20036;-80
2022/06/22 09:37:55;;;;;;;10.13;4.22;;;21.50;99.90;;;;;;5066634;28;20086;-79
2022/06/22 09:40:35;;;;;;;11.15;3.75;;;21.50;99.90;;;;;;5050491;28;20093;-80
2022/06/22 09:43:19;;;;;;;10.63;3.85;;;21.40;99.90;;;;;;5060098;28;20071;-80
2022/06/22 09:45:51;;;;;;;10.02;3.60;;;21.20;99.90;;;;;;5047443;28;20101;-80
2022/06/22 09:48:35;;;;;;;11.38;3.42;;;21.20;99.90;;;;;;5030502;28;20511;-80
2022/06/22 09:51:19;;;;;;;11.52;3.83;;;21.30;99.90;;;;;;5060209;28;20048;-81
2022/06/22 09:54:04;;;;;;;9.95;3.50;;;21.30;99.90;;;;;;5035785;28;20099;-80
2022/06/22 09:57:12;;;;;;;9.43;3.30;;;21.40;99.90;;;;;;5059154;28;20043;-80
2022/06/22 09:59:43;;;;;;;10.07;3.72;;;21.50;99.90;;;;;;5024862;28;20118;-80
2022/06/22 10:02:23;;;;;;;9.90;3.50;;;21.60;99.90;;;;;;5060168;28;20124;-80
2022/06/22 10:05:30;;;;;;;10.98;3.92;;;21.50;99.90;;;;;;5067046;28;20040;-79
2022/06/22 10:08:05;;;;;;;10.77;4.05;;;21.10;99.90;;;;;;5053420;28;20052;-80
2022/06/22 10:10:58;;;;;;;12.18;3.70;;;21.00;99.90;;;;;;5062205;28;20033;-79
2022/06/22 10:13:24;;;;;;;;;;;21.10;99.90;;;;;;5055921;28;20614;-79
2022/06/22 10:15:49;;;;;;;9.85;3.55;;;21.30;99.90;;;;;;5060546;28;20000;-80
2022/06/22 10:18:57;;;;;;;11.38;3.38;;;21.50;99.90;;;;;;5064268;28;20632;-79
2022/06/22 10:21:56;;;;;;;9.70;3.50;;;21.60;99.90;;;;;;5083119;28;20040;-80
2022/06/22 10:24:31;;;;;;;10.82;3.90;;;20.50;99.90;;;;;;5050135;28;20033;-80
2022/06/22 10:27:51;;;;;;;10.82;3.40;;;21.90;99.90;;;;;;5050654;28;20170;-80
2022/06/22 10:30:25;;;;;;;10.25;3.40;;;22.00;99.90;;;;;;5029310;28;20037;-79
2022/06/22 10:33:27;;;;;;;12.73;3.58;;;22.00;99.90;;;;;;5049606;28;20057;-79
2022/06/22 10:36:19;;;;;;;9.68;3.38;;;22.10;99.90;;;;;;5050557;28;20044;-79
2022/06/22 10:38:47;;;;;;;11.43;3.22;;;22.20;99.90;;;;;;5067148;28;20191;-80
2022/06/22 10:47:24;;;;;;;10.60;3.47;;;22.40;99.90;;;;;;5053671;28;20115;-80
2022/06/22 10:50:03;;;;;;;11.30;3.80;;;22.60;99.90;;;;;;5053552;28;20040;-80
2022/06/22 10:52:38;;;;;;;11.02;4.03;;;22.70;99.90;;;;;;5070520;28;20040;-79
2022/06/22 10:55:15;;;;;;;11.38;4.45;;;22.80;99.90;;;;;;5052305;28;20047;-81
2022/06/22 10:58:28;;;;;;;12.02;4.30;;;22.80;99.90;;;;;;5040654;28;20066;-81
2022/06/22 11:01:28;;;;;;;11.35;4.60;;;22.80;99.90;;;;;;5028003;28;20044;-80
2022/06/22 11:04:14;;;;;;;9.52;3.83;;;22.60;99.90;;;;;;5037926;28;20041;-81
2022/06/22 11:07:05;;;;;;;9.45;3.50;;;22.60;99.90;;;;;;5067535;28;20048;-80
2022/06/22 11:09:46;;;;;;;10.93;4.45;;;22.70;99.90;;;;;;5040809;28;20029;-81
2022/06/22 11:12:25;;;;;;;11.30;3.95;;;22.80;99.90;;;;;;5055742;28;20064;-80
2022/06/22 11:15:10;;;;;;;11.35;4.00;;;22.80;99.90;;;;;;5042534;28;20123;-80
2022/06/22 11:18:00;;;;;;;11.27;3.60;;;22.90;99.90;;;;;;5060908;28;20033;-79
2022/06/22 11:20:57;;;;;;;11.38;4.45;;;23.00;99.90;;;;;;5065288;28;20503;-80
2022/06/22 11:23:38;;;;;;;11.27;4.03;;;23.10;99.90;;;;;;5059045;28;20040;-80
2022/06/22 11:32:24;;;;;;;10.30;3.58;;;23.10;99.90;;;;;;5061965;28;20051;-80
2022/06/22 11:34:59;;;;;;;10.07;3.70;;;23.30;99.90;;;;;;5038498;28;20052;-80
2022/06/22 11:37:53;;;;;;;10.23;3.65;;;23.30;99.90;;;;;;5053350;28;20048;-81
2022/06/22 11:40:45;;;;;;;11.02;3.90;;;23.40;99.90;;;;;;5053062;28;20051;-79
2022/06/22 11:43:39;;;;;;;12.05;3.92;;;23.40;99.90;;;;;;5043646;28;20086;-80
2022/06/22 11:46:25;;;;;;;11.18;3.70;;;23.30;99.90;;;;;;5059984;28;20525;-80
2022/06/22 11:49:06;;;;;;;10.50;3.88;;;23.30;99.90;;;;;;5052278;28;20125;-79
2022/06/22 11:51:39;;;;;;;10.30;3.65;;;23.30;99.90;;;;;;5069339;28;20052;-81
2022/06/22 11:54:28;;;;;;;10.98;3.90;;;23.30;99.90;;;;;;5068923;28;20043;-80
2022/06/22 11:56:57;;;;;;;11.23;3.50;;;23.40;99.90;;;;;;5068083;28;20538;-79
2022/06/22 11:59:29;;;;;;;10.07;3.50;;;23.40;99.90;;;;;;5061607;28;20075;-80
2022/06/22 12:02:13;;;;;;;10.68;3.45;;;23.50;99.90;;;;;;5064316;28;20403;-80
2022/06/22 12:05:15;;;;;;;11.10;4.18;;;23.50;99.90;;;;;;5037410;28;20430;-80
2022/06/22 12:08:07;;;;;;;11.90;3.67;;;23.60;99.90;;;;;;5049871;28;20044;-79
2022/06/22 12:11:06;;;;;;;8.77;3.30;;;23.60;99.90;;;;;;5067321;28;20299;-80
2022/06/22 12:15:04;;;;;;;9.70;3.47;;;23.70;99.90;;;;;;5041797;28;20390;-79
2022/06/22 12:17:08;;;;;;;9.60;3.42;;;23.90;99.90;;;;;;5065296;28;20051;-80
2022/06/22 12:20:11;;;;;;;10.40;3.83;;;24.10;99.90;;;;;;5037973;28;20049;-80
2022/06/22 12:23:04;;;;;;;11.25;3.85;;;24.10;99.90;;;;;;5048271;28;20068;-79
2022/06/22 12:25:54;;;;;;;10.13;3.45;;;23.90;99.90;;;;;;5057798;28;20045;-80
2022/06/22 12:28:34;;;;;;;10.95;3.70;;;24.00;99.90;;;;;;5035482;28;20040;-80
2022/06/22 12:31:12;;;;;;;10.07;3.67;;;23.90;99.90;;;;;;5068736;28;20058;-80
2022/06/22 12:34:02;;;;;;;9.70;3.25;;;23.80;99.90;;;;;;5051369;28;20037;-80
2022/06/22 12:36:39;;;;;;;11.77;3.70;;;23.90;99.90;;;;;;5049333;28;20075;-79
2022/06/22 12:39:11;;;;;;;7.95;3.15;;;24.10;99.90;;;;;;5062414;28;20472;-80
2022/06/22 12:41:55;;;;;;;9.30;3.05;;;24.10;99.90;;;;;;5050885;28;20064;-80
2022/06/22 12:44:30;;;;;;;9.98;3.33;;;24.20;99.90;;;;;;5047995;28;20106;-80
2022/06/22 12:47:29;;;;;;;9.43;3.50;;;24.10;99.90;;;;;;5031728;28;20044;-80
2022/06/22 12:50:19;;;;;;;9.90;3.28;;;24.10;99.90;;;;;;5050453;28;20432;-79
2022/06/22 12:52:51;;;;;;;10.80;3.30;;;24.20;99.90;;;;;;5058079;28;20120;-80
2022/06/22 12:55:30;;;;;;;11.07;3.40;;;24.30;99.90;;;;;;5050040;28;20189;-80
2022/06/22 12:58:17;;;;;;;10.43;3.55;;;24.40;99.90;;;;;;5031186;28;20371;-80
2022/06/22 13:00:44;;;;;;;11.30;3.30;;;24.40;99.90;;;;;;5066576;28;20112;-81
2022/06/22 13:03:24;;;;;;;10.50;3.83;;;24.30;99.90;;;;;;5054262;28;20048;-80
2022/06/22 13:05:51;;;;;;;12.70;3.22;;;24.30;99.90;;;;;;5033188;28;20043;-80
2022/06/22 13:08:26;;;;;;;9.40;2.88;;;24.30;99.90;;;;;;5024568;28;20076;-80
2022/06/22 13:11:06;;;;;;;11.75;3.42;;;24.30;99.90;;;;;;5045076;28;20085;-80
2022/06/22 13:13:56;;;;;;;11.25;3.05;;;24.30;99.90;;;;;;5052429;28;20431;-81
2022/06/22 13:16:45;;;;;;;10.52;3.22;;;24.40;99.90;;;;;;5050257;28;20072;-80
2022/06/22 13:19:16;;;;;;;8.70;3.08;;;24.40;99.90;;;;;;5050655;28;20098;-80
2022/06/22 13:22:02;;;;;;;10.23;3.75;;;24.50;99.90;;;;;;5067695;28;20036;-80
2022/06/22 13:24:42;;;;;;;8.73;2.88;;;24.50;99.90;;;;;;5030929;28;20041;-79
2022/06/22 13:27:32;;;;;;;8.38;3.10;;;24.70;99.90;;;;;;5056341;28;20032;-79
2022/06/22 13:30:17;;;;;;;10.07;3.35;;;24.70;99.90;;;;;;5049662;28;20044;-79
2022/06/22 13:32:53;;;;;;;11.35;3.03;;;24.90;99.90;;;;;;5030599;28;20037;-80
2022/06/22 13:35:35;;;;;;;8.32;3.05;;;25.00;99.90;;;;;;5047236;28;20036;-80
2022/06/22 13:38:32;;;;;;;10.38;3.65;;;25.00;99.90;;;;;;5047350;28;20214;-80
2022/06/22 13:41:25;;;;;;;9.95;2.90;;;24.90;99.90;;;;;;5036257;28;20045;-80
2022/06/22 13:44:06;;;;;;;11.23;3.10;;;25.00;99.90;;;;;;5045140;28;20067;-81
2022/06/22 13:46:55;;;;;;;8.13;3.00;;;25.00;99.90;;;;;;5054620;28;20033;-80
2022/06/22 13:49:53;;;;;;;9.45;3.70;;;25.10;99.90;;;;;;5052841;28;20048;-79
2022/06/22 13:52:43;;;;;;;10.20;3.47;;;25.10;99.90;;;;;;5054536;28;20044;-79
2022/06/22 13:55:31;;;;;;;11.15;4.30;;;25.10;99.90;;;;;;5059619;28;20044;-80
2022/06/22 13:58:21;;;;;;;10.55;3.97;;;24.90;99.90;;;;;;5062684;28;20040;-80
2022/06/22 14:01:03;;;;;;;13.23;3.90;;;24.80;99.90;;;;;;5043870;28;20353;-79
2022/06/22 14:03:46;;;;;;;10.18;4.00;;;24.50;99.90;;;;;;5040201;28;20043;-81